Time;durP1;ratioP1;P1;durP2;ratioP2;P2;SDS_P1;SDS_P2;PMS_P1;PMS_P2;Temp;Humidity;BMP_temperature;BMP_pressure;BME280_temperature;BME280_humidity;BME280_pressure;Samples;Min_cycle;Max_cycle;Signal;HPM_P1;HPM_P2
2021/03/17 00:01:11;;;;;;;4.03;3.03;;;6.80;99.90;;;;;;4158929;28;20104;-68
2021/03/17 00:03:12;;;;;;;3.30;2.83;;;6.80;99.90;;;;;;4159649;28;20041;-68
2021/03/17 00:05:16;;;;;;;6.60;2.75;;;6.80;99.90;;;;;;4161866;28;20044;-68
2021/03/17 00:07:16;;;;;;;5.13;3.40;;;6.70;99.90;;;;;;4161886;28;20095;-68
2021/03/17 00:09:17;;;;;;;4.68;2.75;;;6.80;99.90;;;;;;4161367;28;20069;-68
2021/03/17 00:11:18;;;;;;;4.78;3.35;;;6.70;99.90;;;;;;4161785;28;20113;-68
2021/03/17 00:13:24;;;;;;;6.38;2.85;;;6.70;99.90;;;;;;4161833;28;20148;-68
2021/03/17 00:15:27;;;;;;;4.72;3.30;;;6.70;99.90;;;;;;4161175;28;20022;-68
2021/03/17 00:17:28;;;;;;;4.85;2.55;;;6.60;99.90;;;;;;4160799;28;20030;-68
2021/03/17 00:19:28;;;;;;;4.70;2.67;;;6.60;99.90;;;;;;4155887;28;20095;-68
2021/03/17 00:21:29;;;;;;;4.80;3.08;;;6.70;99.90;;;;;;4160220;28;20559;-68
2021/03/17 00:23:29;;;;;;;4.45;2.75;;;6.70;99.90;;;;;;4158035;28;20034;-68
2021/03/17 00:25:35;;;;;;;4.80;2.80;;;6.60;99.90;;;;;;4158168;28;20099;-68
2021/03/17 00:27:37;;;;;;;4.95;2.95;;;6.60;99.90;;;;;;4156775;28;20484;-68
2021/03/17 00:29:37;;;;;;;4.35;3.17;;;6.60;99.90;;;;;;4159753;28;20037;-68
2021/03/17 00:31:38;;;;;;;3.95;2.65;;;6.60;99.90;;;;;;4158995;28;20116;-68
2021/03/17 00:33:38;;;;;;;3.97;2.13;;;6.60;99.90;;;;;;4157930;28;20037;-68
2021/03/17 00:35:40;;;;;;;4.22;2.72;;;6.50;99.90;;;;;;4161623;28;20117;-68
2021/03/17 00:37:41;;;;;;;5.00;2.83;;;6.50;99.90;;;;;;4154562;28;20121;-68
2021/03/17 00:39:42;;;;;;;3.85;2.60;;;6.50;99.90;;;;;;4158917;28;20509;-68
2021/03/17 00:41:43;;;;;;;5.80;2.85;;;6.50;99.90;;;;;;4160682;28;20083;-68
2021/03/17 00:43:43;;;;;;;4.07;2.80;;;6.40;99.90;;;;;;4161179;28;20037;-68
2021/03/17 00:45:44;;;;;;;5.22;3.10;;;6.40;99.90;;;;;;4159381;28;20025;-68
2021/03/17 00:47:45;;;;;;;6.22;2.78;;;6.50;99.90;;;;;;4161062;28;20047;-68
2021/03/17 00:49:46;;;;;;;4.18;2.70;;;6.40;99.90;;;;;;4153476;28;20045;-68
2021/03/17 00:51:46;;;;;;;3.88;2.53;;;6.50;99.90;;;;;;4157721;28;20390;-68
2021/03/17 00:53:47;;;;;;;3.38;2.78;;;6.50;99.90;;;;;;4159976;28;20033;-68
2021/03/17 00:55:47;;;;;;;5.40;2.70;;;6.50;99.90;;;;;;4160421;28;20396;-68
2021/03/17 00:57:48;;;;;;;3.58;2.55;;;6.40;99.90;;;;;;4160731;28;20033;-68
2021/03/17 00:59:48;;;;;;;6.22;2.97;;;6.40;99.90;;;;;;4156201;28;20111;-68
2021/03/17 01:01:49;;;;;;;4.38;2.65;;;6.40;99.90;;;;;;4157642;28;20124;-68
2021/03/17 01:03:52;;;;;;;2.80;2.35;;;6.50;99.90;;;;;;4160443;28;20037;-68
2021/03/17 01:05:53;;;;;;;4.28;2.65;;;6.50;99.90;;;;;;4160530;28;20037;-69
2021/03/17 01:07:53;;;;;;;2.95;2.65;;;6.40;99.90;;;;;;4160808;28;20079;-68
2021/03/17 01:09:54;;;;;;;3.20;2.40;;;6.50;99.90;;;;;;4153031;28;20397;-69
2021/03/17 01:11:55;;;;;;;4.22;3.03;;;6.50;99.90;;;;;;4148049;28;20042;-68
2021/03/17 01:13:56;;;;;;;2.90;2.55;;;6.50;99.90;;;;;;4153316;28;20386;-68
2021/03/17 01:15:57;;;;;;;3.72;3.00;;;6.50;99.90;;;;;;4156995;28;20029;-68
2021/03/17 01:17:57;;;;;;;5.18;3.08;;;6.50;99.90;;;;;;4156609;28;20037;-69
2021/03/17 01:19:58;;;;;;;4.25;3.13;;;6.40;99.90;;;;;;4160888;28;20095;-68
2021/03/17 01:21:59;;;;;;;5.00;3.67;;;6.50;99.90;;;;;;4157356;28;20484;-68
2021/03/17 01:23:59;;;;;;;4.38;3.58;;;6.40;99.90;;;;;;4159614;28;20033;-68
2021/03/17 01:26:00;;;;;;;4.85;3.60;;;6.40;99.90;;;;;;4160528;28;20175;-68
2021/03/17 01:28:03;;;;;;;5.07;3.47;;;6.40;99.90;;;;;;4159145;28;20029;-69
2021/03/17 01:30:06;;;;;;;4.57;3.25;;;6.50;99.90;;;;;;4154018;28;20041;-68
2021/03/17 01:32:07;;;;;;;5.00;3.53;;;6.40;99.90;;;;;;4156662;28;20060;-69
2021/03/17 01:34:08;;;;;;;5.15;3.80;;;6.50;99.90;;;;;;4158795;28;20033;-68
2021/03/17 01:36:08;;;;;;;5.90;4.07;;;6.40;99.90;;;;;;4159299;28;20045;-68
2021/03/17 01:38:10;;;;;;;5.38;3.75;;;6.50;99.90;;;;;;4148402;28;20034;-69
2021/03/17 01:40:12;;;;;;;4.15;3.55;;;6.40;99.90;;;;;;4149154;28;20038;-68
2021/03/17 01:42:13;;;;;;;;;;;6.40;99.90;;;;;;4142263;28;20580;-68
2021/03/17 01:44:14;;;;;;;6.05;3.70;;;6.40;99.90;;;;;;4158238;28;19956;-69
2021/03/17 01:46:15;;;;;;;4.55;3.60;;;6.40;99.90;;;;;;4158744;28;20046;-69
2021/03/17 01:48:17;;;;;;;4.72;3.50;;;6.40;99.90;;;;;;4153530;28;20732;-69
2021/03/17 01:50:24;;;;;;;5.13;3.90;;;6.40;99.90;;;;;;4157701;28;20040;-69
2021/03/17 01:52:24;;;;;;;4.80;3.55;;;6.40;99.90;;;;;;4147201;28;20051;-68
2021/03/17 01:54:25;;;;;;;5.20;3.55;;;6.40;99.90;;;;;;4155740;28;20057;-69
2021/03/17 01:56:26;;;;;;;5.25;4.20;;;6.40;99.90;;;;;;4155849;28;20029;-69
2021/03/17 01:58:28;;;;;;;5.30;4.63;;;6.40;99.90;;;;;;4156979;28;20155;-69
2021/03/17 02:00:28;;;;;;;5.30;4.05;;;6.40;99.90;;;;;;4154408;28;20037;-68
2021/03/17 02:02:31;;;;;;;4.95;3.83;;;6.40;99.90;;;;;;4138603;28;20077;-68
2021/03/17 02:04:32;;;;;;;7.30;4.28;;;6.40;99.90;;;;;;4150943;28;20029;-69
2021/03/17 02:06:32;;;;;;;6.82;4.40;;;6.40;99.90;;;;;;4150187;28;20029;-69
2021/03/17 02:08:35;;;;;;;7.95;4.35;;;6.40;99.90;;;;;;4158557;28;20033;-69
2021/03/17 02:10:36;;;;;;;;;;;6.40;99.90;;;;;;4160280;28;20072;-69
2021/03/17 02:13:01;;;;;;;4.95;4.28;;;6.40;99.90;;;;;;4159742;28;20634;-69
2021/03/17 02:15:09;;;;;;;6.88;4.80;;;6.40;99.90;;;;;;4159155;28;20045;-69
2021/03/17 02:17:21;;;;;;;5.15;4.13;;;6.30;99.90;;;;;;4159576;28;20087;-69
2021/03/17 02:19:31;;;;;;;4.70;3.90;;;6.30;99.90;;;;;;4147736;28;20040;-69
2021/03/17 02:21:38;;;;;;;5.15;4.32;;;6.30;99.90;;;;;;4159870;28;20049;-69
2021/03/17 02:24:03;;;;;;;4.90;4.32;;;6.30;99.90;;;;;;4157901;28;20042;-69
2021/03/17 02:26:45;;;;;;;6.88;4.50;;;6.30;99.90;;;;;;4159128;28;20037;-69
2021/03/17 02:29:05;;;;;;;6.05;4.32;;;6.20;99.90;;;;;;4147957;28;20474;-69
2021/03/17 02:32:02;;;;;;;4.55;3.75;;;6.20;99.90;;;;;;4157211;28;20628;-68
2021/03/17 02:34:08;;;;;;;6.55;3.72;;;6.20;99.90;;;;;;4107852;28;20043;-69
2021/03/17 02:36:27;;;;;;;4.30;3.55;;;6.10;99.90;;;;;;4138806;28;20039;-69
2021/03/17 02:38:29;;;;;;;4.28;3.72;;;6.00;99.90;;;;;;4157459;28;20040;-69
2021/03/17 02:40:36;;;;;;;4.30;3.25;;;6.10;99.90;;;;;;4159643;28;20045;-68
2021/03/17 02:42:45;;;;;;;4.43;3.47;;;6.00;99.90;;;;;;4157443;28;20041;-69
2021/03/17 02:44:50;;;;;;;3.95;3.28;;;6.00;99.90;;;;;;4157606;28;20053;-68
2021/03/17 02:46:53;;;;;;;5.30;3.55;;;6.00;99.90;;;;;;4158736;28;20033;-68
2021/03/17 02:49:12;;;;;;;3.88;3.20;;;5.90;99.90;;;;;;4159424;28;20072;-69
2021/03/17 02:51:37;;;;;;;4.10;3.30;;;5.90;99.90;;;;;;4158111;28;20043;-68
2021/03/17 02:53:40;;;;;;;3.50;3.03;;;5.90;99.90;;;;;;4157544;28;20033;-68
2021/03/17 02:55:49;;;;;;;5.25;3.25;;;5.90;99.90;;;;;;4159209;28;20030;-68
2021/03/17 02:57:54;;;;;;;3.25;2.95;;;5.90;99.90;;;;;;4158708;28;20100;-69
2021/03/17 02:59:56;;;;;;;3.97;3.20;;;5.80;99.90;;;;;;4159394;28;20026;-68
2021/03/17 03:01:59;;;;;;;4.70;3.50;;;5.90;99.90;;;;;;4157666;28;20051;-69
2021/03/17 03:04:04;;;;;;;4.88;3.20;;;5.80;99.90;;;;;;4157413;28;20030;-68
2021/03/17 03:06:07;;;;;;;4.90;3.38;;;5.80;99.90;;;;;;4158860;28;20098;-68
2021/03/17 03:08:10;;;;;;;4.20;3.38;;;5.90;99.90;;;;;;4151335;28;20084;-68
2021/03/17 03:10:11;;;;;;;3.60;2.92;;;5.80;99.90;;;;;;4158156;28;20040;-69
2021/03/17 03:12:13;;;;;;;4.05;3.40;;;5.80;99.90;;;;;;4153859;28;20060;-69
2021/03/17 03:14:14;;;;;;;4.00;3.30;;;5.80;99.90;;;;;;4160695;28;20510;-69
2021/03/17 03:16:16;;;;;;;5.07;3.17;;;5.70;99.90;;;;;;4162105;28;20045;-69
2021/03/17 03:18:17;;;;;;;4.50;3.50;;;5.80;99.90;;;;;;4162621;28;20040;-69
2021/03/17 03:20:21;;;;;;;6.88;3.47;;;5.80;99.90;;;;;;4162336;28;20447;-69
2021/03/17 03:22:25;;;;;;;4.68;3.22;;;5.80;99.90;;;;;;4161742;28;20587;-68
2021/03/17 03:24:29;;;;;;;5.22;3.00;;;5.80;99.90;;;;;;4162374;28;20094;-69
2021/03/17 03:26:33;;;;;;;3.47;2.73;;;5.70;99.90;;;;;;4161051;28;20034;-69
2021/03/17 03:28:34;;;;;;;3.58;3.15;;;5.70;99.90;;;;;;4162069;28;20264;-68
2021/03/17 03:30:37;;;;;;;5.63;3.28;;;5.70;99.90;;;;;;4160994;28;20041;-69
2021/03/17 03:32:40;;;;;;;4.60;3.58;;;5.70;99.90;;;;;;4154406;28;20095;-69
2021/03/17 03:34:41;;;;;;;5.22;3.90;;;5.70;99.90;;;;;;4158867;28;20026;-69
2021/03/17 03:36:43;;;;;;;4.28;3.30;;;5.70;99.90;;;;;;4156656;28;20030;-68
2021/03/17 03:38:43;;;;;;;7.27;3.80;;;5.70;99.90;;;;;;4153195;28;20037;-69
2021/03/17 03:40:44;;;;;;;5.38;3.58;;;5.70;99.90;;;;;;4160623;28;20037;-69
2021/03/17 03:42:46;;;;;;;4.10;3.22;;;5.70;99.90;;;;;;4161520;28;20136;-69
2021/03/17 03:44:46;;;;;;;3.90;3.40;;;5.60;99.90;;;;;;4162281;28;20038;-69
2021/03/17 03:46:47;;;;;;;3.25;2.95;;;5.60;99.90;;;;;;4161774;28;20423;-68
2021/03/17 03:48:48;;;;;;;3.38;2.90;;;5.60;99.90;;;;;;4160523;28;20408;-69
2021/03/17 03:50:50;;;;;;;3.38;2.90;;;5.60;99.90;;;;;;4157371;28;20025;-69
2021/03/17 03:53:18;;;;;;;4.50;3.20;;;5.60;99.90;;;;;;4144652;28;20040;-69
2021/03/17 03:55:33;;;;;;;5.20;2.70;;;5.60;99.90;;;;;;4145658;28;20042;-69
2021/03/17 03:57:45;;;;;;;3.22;2.70;;;5.60;99.90;;;;;;4151200;28;20052;-69
2021/03/17 03:59:49;;;;;;;3.00;2.50;;;5.60;99.90;;;;;;4152010;28;20458;-69
2021/03/17 04:01:59;;;;;;;3.90;2.47;;;5.60;99.90;;;;;;4157465;28;20241;-69
2021/03/17 04:04:04;;;;;;;3.63;3.03;;;5.70;99.90;;;;;;4156638;28;20443;-69
2021/03/17 04:06:05;;;;;;;3.33;2.65;;;5.70;99.90;;;;;;4160199;28;20030;-69
2021/03/17 04:08:10;;;;;;;3.10;2.75;;;5.70;99.90;;;;;;4156393;28;20072;-69
2021/03/17 04:10:12;;;;;;;3.67;2.75;;;5.70;99.90;;;;;;4161220;28;20032;-69
2021/03/17 04:12:15;;;;;;;3.92;3.05;;;5.80;99.90;;;;;;4154478;28;20076;-69
2021/03/17 04:14:22;;;;;;;4.47;3.33;;;5.70;99.90;;;;;;4146576;28;20465;-69
2021/03/17 04:16:25;;;;;;;3.80;2.65;;;5.80;99.90;;;;;;4152885;28;20064;-69
2021/03/17 04:18:31;;;;;;;3.85;3.45;;;5.70;99.90;;;;;;4157671;28;20064;-69
2021/03/17 04:20:37;;;;;;;4.13;3.10;;;5.80;99.90;;;;;;4161801;28;20034;-69
2021/03/17 04:22:39;;;;;;;10.00;3.58;;;5.70;99.90;;;;;;4159369;28;20068;-69
2021/03/17 04:24:41;;;;;;;4.40;3.78;;;5.70;99.90;;;;;;4159217;28;20064;-69
2021/03/17 04:26:43;;;;;;;4.50;3.13;;;5.80;99.90;;;;;;4160577;28;20033;-69
2021/03/17 04:28:46;;;;;;;4.13;3.55;;;5.70;99.90;;;;;;4161582;28;20402;-69
2021/03/17 04:30:47;;;;;;;7.55;3.83;;;5.70;99.90;;;;;;4159413;28;20033;-69
2021/03/17 04:32:50;;;;;;;5.70;4.30;;;5.70;99.90;;;;;;4161003;28;20026;-69
2021/03/17 04:34:52;;;;;;;6.60;4.03;;;5.70;99.90;;;;;;4161104;28;20712;-69
2021/03/17 04:36:54;;;;;;;3.67;3.22;;;5.60;99.90;;;;;;4158837;28;20033;-69
2021/03/17 04:38:58;;;;;;;4.50;3.28;;;5.70;99.90;;;;;;4157605;28;20028;-69
2021/03/17 04:41:00;;;;;;;4.45;3.83;;;5.60;99.90;;;;;;4140147;28;20041;-69
2021/03/17 04:43:01;;;;;;;4.90;4.13;;;5.70;99.90;;;;;;4155500;28;20030;-69
2021/03/17 04:45:03;;;;;;;5.53;4.40;;;5.70;99.90;;;;;;4161369;28;20041;-69
2021/03/17 04:47:05;;;;;;;5.75;4.32;;;5.70;99.90;;;;;;4160471;28;20040;-69
2021/03/17 04:49:07;;;;;;;5.90;4.10;;;5.70;99.90;;;;;;4155878;28;20045;-69
2021/03/17 04:51:09;;;;;;;6.03;4.30;;;5.60;99.90;;;;;;4159142;28;20477;-69
2021/03/17 04:53:11;;;;;;;5.07;3.97;;;5.70;99.90;;;;;;4153923;28;20030;-69
2021/03/17 04:55:15;;;;;;;5.70;4.25;;;5.70;99.90;;;;;;4159873;28;20033;-69
2021/03/17 04:57:23;;;;;;;4.75;4.07;;;5.60;99.90;;;;;;4159541;28;20057;-69
2021/03/17 04:59:23;;;;;;;7.22;4.43;;;5.70;99.90;;;;;;4154375;28;20033;-69
2021/03/17 05:01:25;;;;;;;6.38;4.72;;;5.70;99.90;;;;;;4158176;28;20124;-69
2021/03/17 05:03:26;;;;;;;6.38;4.68;;;5.70;99.90;;;;;;4135334;28;20041;-69
2021/03/17 05:05:29;;;;;;;7.10;4.82;;;5.70;99.90;;;;;;4159676;28;20029;-69
2021/03/17 05:07:31;;;;;;;5.97;5.00;;;5.70;99.90;;;;;;4155737;28;20046;-69
2021/03/17 05:09:33;;;;;;;8.05;5.60;;;5.70;99.90;;;;;;4152194;28;20448;-69
2021/03/17 05:11:36;;;;;;;6.93;5.15;;;5.70;99.90;;;;;;4160571;28;20025;-69
2021/03/17 05:13:38;;;;;;;8.73;5.78;;;5.70;99.90;;;;;;4159804;28;20525;-69
2021/03/17 05:15:40;;;;;;;6.10;5.13;;;5.70;99.90;;;;;;4153499;28;20586;-69
2021/03/17 05:17:43;;;;;;;7.55;5.35;;;5.60;99.90;;;;;;4160464;28;20034;-69
2021/03/17 05:19:44;;;;;;;6.55;5.57;;;5.70;99.90;;;;;;4160036;28;20030;-69
2021/03/17 05:21:46;;;;;;;6.10;5.15;;;5.60;99.90;;;;;;4160326;28;20248;-69
2021/03/17 05:23:46;;;;;;;6.13;4.90;;;5.60;99.90;;;;;;4159503;28;20047;-69
2021/03/17 05:25:48;;;;;;;6.88;4.88;;;5.60;99.90;;;;;;4160083;28;20053;-69
2021/03/17 05:27:55;;;;;;;9.50;6.30;;;5.60;99.90;;;;;;4160517;28;20401;-69
2021/03/17 05:29:57;;;;;;;9.02;5.93;;;5.60;99.90;;;;;;4152678;28;20801;-69
2021/03/17 05:31:58;;;;;;;6.70;5.30;;;5.60;99.90;;;;;;4158552;28;20045;-69
2021/03/17 05:33:59;;;;;;;6.15;5.47;;;5.60;99.90;;;;;;4153403;28;20038;-69
2021/03/17 05:36:00;;;;;;;6.93;5.70;;;5.60;99.90;;;;;;4160481;28;20107;-69
2021/03/17 05:38:01;;;;;;;8.27;6.00;;;5.70;99.90;;;;;;4159372;28;20033;-69
2021/03/17 05:40:04;;;;;;;7.35;5.63;;;5.70;99.90;;;;;;4160329;28;20535;-69
2021/03/17 05:42:05;;;;;;;8.75;5.43;;;5.70;99.90;;;;;;4156131;28;20413;-69
2021/03/17 05:44:07;;;;;;;8.48;5.85;;;5.70;99.90;;;;;;4156773;28;20030;-69
2021/03/17 05:46:08;;;;;;;6.65;5.22;;;5.70;99.90;;;;;;4157992;28;20495;-69
2021/03/17 05:48:10;;;;;;;7.30;5.50;;;5.80;99.90;;;;;;4160154;28;20112;-69
2021/03/17 05:50:12;;;;;;;8.57;6.10;;;5.70;99.90;;;;;;4159398;28;20421;-69
2021/03/17 05:52:18;;;;;;;5.10;4.55;;;5.70;99.90;;;;;;4158278;28;20064;-69
2021/03/17 05:54:18;;;;;;;6.68;5.10;;;5.70;99.90;;;;;;4154067;28;20038;-69
2021/03/17 05:56:19;;;;;;;5.65;4.85;;;5.70;99.90;;;;;;4157761;28;20505;-69
2021/03/17 05:58:23;;;;;;;6.00;4.85;;;5.70;99.90;;;;;;4159641;28;20094;-69
2021/03/17 06:00:24;;;;;;;13.55;5.57;;;5.70;99.90;;;;;;4157704;28;20036;-70
2021/03/17 06:02:25;;;;;;;6.90;5.03;;;5.80;99.90;;;;;;4156215;28;20424;-70
2021/03/17 06:04:27;;;;;;;7.10;5.55;;;5.80;99.90;;;;;;4154790;28;20057;-69
2021/03/17 06:06:29;;;;;;;5.78;5.00;;;5.80;99.90;;;;;;4156423;28;22665;-69
2021/03/17 06:08:38;;;;;;;5.25;4.60;;;5.80;99.90;;;;;;4154472;28;20587;-69
2021/03/17 06:10:39;;;;;;;6.18;5.07;;;5.70;99.90;;;;;;4154915;28;21132;-69
2021/03/17 06:12:44;;;;;;;6.43;4.60;;;5.80;99.90;;;;;;4140725;28;20049;-69
2021/03/17 06:14:49;;;;;;;6.25;5.13;;;5.80;99.90;;;;;;4157575;28;20049;-69
2021/03/17 06:16:58;;;;;;;5.07;4.55;;;5.80;99.90;;;;;;4157885;28;20034;-69
2021/03/17 06:19:02;;;;;;;5.72;4.85;;;5.80;99.90;;;;;;4158091;28;20037;-69
2021/03/17 06:21:05;;;;;;;5.05;4.43;;;5.80;99.90;;;;;;4157033;28;20136;-69
2021/03/17 06:23:06;;;;;;;7.25;5.25;;;5.80;99.90;;;;;;4145560;28;20033;-69
2021/03/17 06:25:08;;;;;;;4.75;4.22;;;5.80;99.90;;;;;;4158431;28;20477;-69
2021/03/17 06:27:12;;;;;;;5.20;4.15;;;5.80;99.90;;;;;;4156797;28;20224;-69
2021/03/17 06:29:16;;;;;;;6.63;4.57;;;5.80;99.90;;;;;;4155023;28;20022;-69
2021/03/17 06:31:20;;;;;;;5.53;4.75;;;5.90;99.90;;;;;;4153006;28;20168;-70
2021/03/17 06:33:21;;;;;;;4.88;4.10;;;5.90;99.90;;;;;;4149928;28;20485;-69
2021/03/17 06:35:24;;;;;;;5.28;4.07;;;5.90;99.90;;;;;;4131315;28;20076;-69
2021/03/17 06:37:45;;;;;;;;;;;5.90;99.90;;;;;;4124872;28;20037;-69
2021/03/17 06:39:46;;;;;;;5.18;3.65;;;5.90;99.90;;;;;;4157843;28;20645;-69
2021/03/17 06:41:54;;;;;;;7.20;3.72;;;5.90;99.90;;;;;;4156500;28;20037;-69
2021/03/17 06:44:02;;;;;;;5.38;4.38;;;5.90;99.90;;;;;;4154873;28;20029;-69
2021/03/17 06:46:05;;;;;;;5.28;3.72;;;5.90;99.90;;;;;;4159392;28;20048;-69
2021/03/17 06:48:25;;;;;;;4.75;3.80;;;5.90;99.90;;;;;;4156831;28;20036;-69
2021/03/17 06:50:29;;;;;;;4.30;3.22;;;5.90;99.90;;;;;;4156823;28;20041;-69
2021/03/17 06:52:37;;;;;;;3.33;2.88;;;5.90;99.90;;;;;;4158990;28;20374;-69
2021/03/17 06:54:38;;;;;;;4.95;3.05;;;5.90;99.90;;;;;;4158505;28;20037;-69
2021/03/17 06:56:40;;;;;;;2.95;2.65;;;5.90;99.90;;;;;;4157374;28;20627;-69
2021/03/17 06:58:44;;;;;;;4.03;3.13;;;6.00;99.90;;;;;;4167131;28;20060;-69
2021/03/17 07:00:44;;;;;;;3.85;3.00;;;6.00;99.90;;;;;;4157204;28;20049;-69
2021/03/17 07:03:00;;;;;;;3.80;2.80;;;6.00;99.90;;;;;;4159045;28;20686;-69
2021/03/17 07:05:01;;;;;;;3.33;2.80;;;6.00;99.90;;;;;;4157981;28;20478;-69
2021/03/17 07:07:03;;;;;;;3.05;2.70;;;6.00;99.90;;;;;;4158376;28;20025;-69
2021/03/17 07:09:26;;;;;;;2.90;2.60;;;6.00;99.90;;;;;;4159182;28;20029;-69
2021/03/17 07:11:30;;;;;;;3.22;2.35;;;6.00;99.90;;;;;;4154361;28;20038;-69
2021/03/17 07:13:31;;;;;;;2.35;2.13;;;6.00;99.90;;;;;;4157019;28;20041;-69
2021/03/17 07:15:33;;;;;;;3.28;1.83;;;6.00;99.90;;;;;;4157618;28;20030;-69
2021/03/17 07:17:34;;;;;;;3.42;2.03;;;6.00;99.90;;;;;;4157574;28;20049;-69
2021/03/17 07:19:35;;;;;;;3.70;1.98;;;6.00;99.90;;;;;;4158691;28;20458;-69
2021/03/17 07:21:38;;;;;;;4.10;1.55;;;6.00;99.90;;;;;;4156563;28;20100;-69
2021/03/17 07:23:44;;;;;;;;;;;5.90;99.90;;;;;;4159666;28;20040;-69
2021/03/17 07:26:16;;;;;;;2.53;1.17;;;5.90;99.90;;;;;;4157073;28;19944;-69
2021/03/17 07:28:17;;;;;;;3.70;1.35;;;5.90;99.90;;;;;;4156447;28;20104;-69
2021/03/17 07:30:18;;;;;;;4.78;1.30;;;5.80;99.90;;;;;;4159152;28;20045;-69
2021/03/17 07:32:18;;;;;;;2.17;1.38;;;5.80;99.90;;;;;;4156753;28;20037;-69
2021/03/17 07:34:25;;;;;;;3.25;1.20;;;5.90;99.90;;;;;;4153161;28;20120;-69
2021/03/17 07:36:30;;;;;;;6.32;1.33;;;5.90;99.90;;;;;;4154715;28;20044;-69
2021/03/17 07:38:33;;;;;;;2.53;0.93;;;5.90;99.90;;;;;;4158515;28;20037;-69
2021/03/17 07:40:44;;;;;;;5.33;1.50;;;5.90;99.90;;;;;;4158732;28;20036;-69
2021/03/17 07:42:45;;;;;;;2.58;1.23;;;5.90;99.90;;;;;;4157645;28;20260;-69
2021/03/17 07:44:47;;;;;;;4.30;1.23;;;5.90;99.90;;;;;;4156046;28;20044;-69
2021/03/17 07:46:51;;;;;;;3.85;1.40;;;5.90;99.90;;;;;;4144533;28;20191;-69
2021/03/17 07:48:52;;;;;;;2.15;0.88;;;5.90;99.90;;;;;;4151736;28;20107;-70
2021/03/17 07:50:54;;;;;;;3.85;0.90;;;6.00;99.90;;;;;;4154589;28;20033;-70
2021/03/17 07:52:54;;;;;;;2.75;0.90;;;6.00;99.90;;;;;;4157910;28;20485;-69
2021/03/17 07:55:05;;;;;;;3.47;1.10;;;6.00;99.90;;;;;;4157664;28;20042;-69
2021/03/17 07:57:07;;;;;;;2.05;0.73;;;6.00;99.90;;;;;;4156864;28;20478;-69
2021/03/17 07:59:08;;;;;;;3.33;0.95;;;6.00;99.90;;;;;;4158077;28;20079;-69
2021/03/17 08:01:09;;;;;;;2.25;0.73;;;6.10;99.90;;;;;;4160515;28;20045;-69
2021/03/17 08:03:15;;;;;;;3.22;1.30;;;6.10;99.90;;;;;;4158235;28;20055;-69
2021/03/17 08:05:15;;;;;;;3.20;1.13;;;6.20;99.90;;;;;;4158328;28;20461;-69
2021/03/17 08:07:17;;;;;;;4.53;1.42;;;6.20;99.90;;;;;;4160245;28;20113;-70
2021/03/17 08:09:18;;;;;;;3.03;1.00;;;6.20;99.90;;;;;;4160875;28;20458;-69
2021/03/17 08:11:20;;;;;;;2.40;0.93;;;6.20;99.90;;;;;;4158589;28;20029;-69
2021/03/17 08:13:21;;;;;;;4.68;1.27;;;6.20;99.90;;;;;;4160994;28;20037;-69
2021/03/17 08:15:23;;;;;;;2.47;1.30;;;6.20;99.90;;;;;;4160632;28;20038;-70
2021/03/17 08:17:30;;;;;;;4.13;1.08;;;6.30;99.90;;;;;;4158839;28;20034;-69
2021/03/17 08:19:31;;;;;;;2.38;1.15;;;6.30;99.90;;;;;;4159470;28;20155;-69
2021/03/17 08:21:53;;;;;;;3.95;1.27;;;6.40;99.90;;;;;;4159073;28;20041;-70
2021/03/17 08:23:54;;;;;;;7.40;1.52;;;6.40;99.90;;;;;;4157212;28;20632;-69
2021/03/17 08:25:55;;;;;;;6.72;1.80;;;6.40;99.90;;;;;;4159913;28;20056;-69
2021/03/17 08:28:29;;;;;;;3.70;1.30;;;6.50;99.90;;;;;;4160898;28;20022;-69
2021/03/17 08:30:32;;;;;;;5.38;1.42;;;6.60;99.90;;;;;;4139271;28;20397;-69
2021/03/17 08:32:52;;;;;;;4.00;1.75;;;6.60;99.90;;;;;;4160357;28;20034;-69
2021/03/17 08:34:57;;;;;;;5.30;1.80;;;6.70;99.90;;;;;;4160408;28;20065;-69
2021/03/17 08:37:05;;;;;;;3.63;1.38;;;6.80;99.90;;;;;;4158595;28;20617;-69
2021/03/17 08:39:06;;;;;;;3.17;1.40;;;6.90;99.90;;;;;;4159481;28;20056;-69
2021/03/17 08:41:07;;;;;;;3.72;1.13;;;6.90;99.90;;;;;;4160298;28;20060;-69
2021/03/17 08:43:29;;;;;;;3.63;1.27;;;7.00;99.90;;;;;;4160343;28;20063;-69
2021/03/17 08:45:29;;;;;;;1.40;1.05;;;7.00;99.90;;;;;;4158707;28;20041;-69
2021/03/17 08:47:41;;;;;;;2.72;1.10;;;7.00;99.90;;;;;;4159001;28;20138;-69
2021/03/17 08:49:44;;;;;;;4.63;1.17;;;7.10;99.90;;;;;;4156219;28;20112;-69
2021/03/17 08:51:47;;;;;;;3.17;1.27;;;7.10;99.90;;;;;;4161582;28;20041;-69
2021/03/17 08:53:47;;;;;;;3.28;1.30;;;7.10;99.90;;;;;;4158784;28;20030;-70
2021/03/17 08:55:49;;;;;;;2.53;1.20;;;7.10;99.90;;;;;;4159663;28;20034;-69
2021/03/17 08:58:01;;;;;;;2.90;1.10;;;7.10;99.90;;;;;;4160590;28;20034;-69
2021/03/17 09:00:02;;;;;;;2.85;1.08;;;7.10;99.90;;;;;;4159884;28;20042;-69
2021/03/17 09:02:03;;;;;;;4.20;1.40;;;7.10;99.90;;;;;;4157296;28;20072;-69
2021/03/17 09:04:04;;;;;;;3.05;1.20;;;7.10;99.90;;;;;;4158098;28;20036;-69
2021/03/17 09:06:04;;;;;;;6.55;1.70;;;7.10;99.90;;;;;;4158489;28;20025;-69
2021/03/17 09:08:10;;;;;;;5.32;1.23;;;7.00;99.90;;;;;;4160062;28;20049;-69
2021/03/17 09:10:13;;;;;;;3.38;1.10;;;7.00;99.90;;;;;;4158864;28;20041;-69
2021/03/17 09:12:15;;;;;;;2.67;1.30;;;7.00;99.90;;;;;;4158630;28;20057;-69
2021/03/17 09:14:23;;;;;;;5.50;1.10;;;7.00;99.90;;;;;;4159808;28;20698;-69
2021/03/17 09:16:25;;;;;;;5.38;1.30;;;7.00;99.90;;;;;;4158103;28;20693;-69
2021/03/17 09:18:25;;;;;;;3.60;1.30;;;7.00;99.90;;;;;;4158661;28;20044;-69
2021/03/17 09:20:29;;;;;;;2.80;0.98;;;7.00;99.90;;;;;;4159529;28;20025;-69
2021/03/17 09:22:36;;;;;;;1.83;1.10;;;7.00;99.90;;;;;;4158530;28;20049;-69
2021/03/17 09:24:37;;;;;;;1.83;1.00;;;7.00;99.90;;;;;;4159826;28;20065;-69
2021/03/17 09:26:38;;;;;;;3.97;1.33;;;7.00;99.90;;;;;;4160131;28;20044;-69
2021/03/17 09:28:38;;;;;;;2.05;1.08;;;7.00;99.90;;;;;;4159870;28;20026;-69
2021/03/17 09:30:53;;;;;;;4.30;1.40;;;7.00;99.90;;;;;;4159913;28;20035;-69
2021/03/17 09:33:03;;;;;;;4.40;1.65;;;7.00;99.90;;;;;;4185291;28;20032;-70
2021/03/17 09:35:06;;;;;;;2.78;1.20;;;6.90;99.90;;;;;;4159005;28;20469;-69
2021/03/17 09:37:09;;;;;;;3.55;1.05;;;6.90;99.90;;;;;;4159117;28;20193;-69
2021/03/17 09:39:10;;;;;;;2.85;1.30;;;6.90;99.90;;;;;;4159562;28;20055;-69
2021/03/17 09:41:14;;;;;;;3.60;1.10;;;6.90;99.90;;;;;;4154328;28;20095;-69
2021/03/17 09:43:32;;;;;;;3.87;1.37;;;6.90;99.90;;;;;;4159518;28;20033;-69
2021/03/17 09:45:34;;;;;;;3.67;1.20;;;6.90;99.90;;;;;;4157172;28;20284;-70
2021/03/17 09:47:35;;;;;;;5.28;1.30;;;6.90;99.90;;;;;;4158946;28;20116;-69
2021/03/17 09:49:36;;;;;;;3.15;1.10;;;6.90;99.90;;;;;;4158489;28;20056;-69
2021/03/17 09:51:41;;;;;;;2.65;1.00;;;6.90;99.90;;;;;;4158804;28;20041;-69
2021/03/17 09:53:43;;;;;;;6.78;1.27;;;6.90;99.90;;;;;;4159434;28;20037;-69
2021/03/17 09:55:44;;;;;;;4.30;1.17;;;6.90;99.90;;;;;;4159058;28;20045;-69
2021/03/17 09:58:00;;;;;;;3.10;1.13;;;6.90;99.90;;;;;;4158045;28;20421;-69
2021/03/17 10:00:00;;;;;;;3.80;0.90;;;6.80;99.90;;;;;;4157620;28;20438;-69
2021/03/17 10:02:10;;;;;;;3.75;1.30;;;6.80;99.90;;;;;;4156895;28;20034;-69
2021/03/17 10:04:17;;;;;;;4.78;1.20;;;6.80;99.90;;;;;;4159460;28;20048;-69
2021/03/17 10:06:18;;;;;;;3.95;1.00;;;6.80;99.90;;;;;;4157034;28;20033;-69
2021/03/17 10:08:19;;;;;;;4.45;1.30;;;6.90;99.90;;;;;;4157361;28;20061;-69
2021/03/17 10:10:21;;;;;;;3.50;1.13;;;6.90;99.90;;;;;;4159353;28;20048;-69
2021/03/17 10:12:27;;;;;;;2.10;0.93;;;7.00;99.90;;;;;;4158819;28;20805;-69
2021/03/17 10:14:28;;;;;;;3.47;1.08;;;7.10;99.90;;;;;;4159137;28;20034;-69
2021/03/17 10:16:29;;;;;;;3.83;1.33;;;7.20;99.90;;;;;;4157679;28;20128;-69
2021/03/17 10:18:30;;;;;;;5.22;0.93;;;7.20;99.90;;;;;;4158118;28;20048;-70
2021/03/17 10:20:31;;;;;;;6.97;1.15;;;7.30;99.90;;;;;;4159192;28;20491;-69
2021/03/17 10:22:32;;;;;;;7.65;1.00;;;7.30;99.90;;;;;;4156057;28;20124;-69
2021/03/17 10:24:48;;;;;;;2.42;0.93;;;7.30;99.90;;;;;;4156174;28;20059;-70
2021/03/17 10:26:49;;;;;;;3.00;0.85;;;7.20;99.90;;;;;;4157737;28;20095;-71
2021/03/17 10:28:50;;;;;;;6.05;1.05;;;7.20;99.90;;;;;;4159678;28;20030;-69
2021/03/17 10:30:53;;;;;;;5.13;1.00;;;7.30;99.90;;;;;;4158869;28;20418;-69
2021/03/17 10:32:56;;;;;;;3.95;1.10;;;7.30;99.90;;;;;;4158562;28;20037;-69
2021/03/17 10:35:01;;;;;;;3.72;0.98;;;7.30;99.90;;;;;;4159200;28;20053;-69
2021/03/17 10:37:02;;;;;;;5.43;1.33;;;7.30;99.90;;;;;;4158599;28;21493;-69
2021/03/17 10:39:04;;;;;;;5.35;1.10;;;7.30;99.90;;;;;;4167142;28;20132;-69
2021/03/17 10:41:04;;;;;;;2.72;1.10;;;7.30;99.90;;;;;;4159359;28;20635;-69
2021/03/17 10:43:12;;;;;;;3.20;1.00;;;7.40;99.90;;;;;;4158858;28;20037;-69
2021/03/17 10:45:18;;;;;;;5.53;1.20;;;7.30;99.90;;;;;;4152633;28;20120;-69
2021/03/17 10:47:24;;;;;;;4.63;1.15;;;7.40;99.90;;;;;;4159195;28;20034;-69
2021/03/17 10:49:26;;;;;;;6.03;1.08;;;7.30;99.90;;;;;;4157234;28;20481;-69
2021/03/17 10:51:26;;;;;;;4.47;1.45;;;7.30;99.90;;;;;;4158273;28;20091;-69
2021/03/17 10:53:29;;;;;;;2.95;0.88;;;7.40;99.90;;;;;;4158633;28;20040;-69
2021/03/17 10:55:30;;;;;;;;;;;7.40;99.90;;;;;;4150564;28;20037;-69